sensor_id;sensor_type;location;lat;lon;timestamp;temperature;humidity
50690;DHT22;71367;48.298;11.238;2023-08-01T00:10:58;17.70;98.40
50690;DHT22;71367;48.298;11.238;2023-08-01T00:26:01;17.70;99.50
50690;DHT22;71367;48.298;11.238;2023-08-01T00:41:03;17.50;99.70
50690;DHT22;71367;48.298;11.238;2023-08-01T00:56:06;17.40;99.90
50690;DHT22;71367;48.298;11.238;2023-08-01T01:11:08;17.30;99.90
50690;DHT22;71367;48.298;11.238;2023-08-01T01:26:11;17.30;99.90
50690;DHT22;71367;48.298;11.238;2023-08-01T01:41:15;17.40;99.80
50690;DHT22;71367;48.298;11.238;2023-08-01T01:56:17;17.30;99.90
50690;DHT22;71367;48.298;11.238;2023-08-01T02:11:20;17.20;99.90
50690;DHT22;71367;48.298;11.238;2023-08-01T02:26:22;17.20;99.90
50690;DHT22;71367;48.298;11.238;2023-08-01T02:41:25;17.20;99.90
50690;DHT22;71367;48.298;11.238;2023-08-01T02:56:27;17.10;99.70
50690;DHT22;71367;48.298;11.238;2023-08-01T03:11:30;17.20;98.00
50690;DHT22;71367;48.298;11.238;2023-08-01T03:26:32;17.30;98.90
50690;DHT22;71367;48.298;11.238;2023-08-01T03:41:35;17.00;99.90
50690;DHT22;71367;48.298;11.238;2023-08-01T03:56:38;16.80;99.90
50690;DHT22;71367;48.298;11.238;2023-08-01T04:11:43;16.60;99.90
50690;DHT22;71367;48.298;11.238;2023-08-01T04:26:45;16.60;99.90
50690;DHT22;71367;48.298;11.238;2023-08-01T04:41:47;16.50;99.90
50690;DHT22;71367;48.298;11.238;2023-08-01T04:56:50;16.50;99.90
50690;DHT22;71367;48.298;11.238;2023-08-01T05:11:52;16.60;99.90
50690;DHT22;71367;48.298;11.238;2023-08-01T05:26:55;16.50;99.90
50690;DHT22;71367;48.298;11.238;2023-08-01T05:41:58;16.60;99.90
50690;DHT22;71367;48.298;11.238;2023-08-01T05:57:00;16.80;99.90
50690;DHT22;71367;48.298;11.238;2023-08-01T06:12:03;17.20;99.90
50690;DHT22;71367;48.298;11.238;2023-08-01T06:27:06;17.20;99.90
50690;DHT22;71367;48.298;11.238;2023-08-01T06:42:08;17.30;99.40
50690;DHT22;71367;48.298;11.238;2023-08-01T06:57:11;17.40;98.20
50690;DHT22;71367;48.298;11.238;2023-08-01T07:12:13;17.60;96.50
50690;DHT22;71367;48.298;11.238;2023-08-01T07:27:16;17.90;95.30
50690;DHT22;71367;48.298;11.238;2023-08-01T07:42:18;18.50;93.30
50690;DHT22;71367;48.298;11.238;2023-08-01T07:57:20;19.30;92.80
50690;DHT22;71367;48.298;11.238;2023-08-01T08:12:23;19.70;90.70
50690;DHT22;71367;48.298;11.238;2023-08-01T08:27:27;19.50;91.60
50690;DHT22;71367;48.298;11.238;2023-08-01T08:42:30;19.20;92.40
50690;DHT22;71367;48.298;11.238;2023-08-01T08:57:33;19.20;93.00
50690;DHT22;71367;48.298;11.238;2023-08-01T09:12:37;19.30;93.20
50690;DHT22;71367;48.298;11.238;2023-08-01T09:27:39;20.20;92.70
50690;DHT22;71367;48.298;11.238;2023-08-01T09:42:43;20.30;91.80
50690;DHT22;71367;48.298;11.238;2023-08-01T09:57:47;20.50;91.00
50690;DHT22;71367;48.298;11.238;2023-08-01T10:12:50;20.20;91.70
50690;DHT22;71367;48.298;11.238;2023-08-01T10:28:00;18.10;97.80
50690;DHT22;71367;48.298;11.238;2023-08-01T10:43:03;17.20;99.90
50690;DHT22;71367;48.298;11.238;2023-08-01T10:58:06;17.20;99.90
50690;DHT22;71367;48.298;11.238;2023-08-01T11:13:11;17.40;99.90
50690;DHT22;71367;48.298;11.238;2023-08-01T11:28:15;17.60;99.90
50690;DHT22;71367;48.298;11.238;2023-08-01T11:43:18;18.70;98.70
50690;DHT22;71367;48.298;11.238;2023-08-01T11:58:31;17.90;99.50
50690;DHT22;71367;48.298;11.238;2023-08-01T12:13:34;17.60;99.90
50690;DHT22;71367;48.298;11.238;2023-08-01T12:28:37;17.60;99.90
50690;DHT22;71367;48.298;11.238;2023-08-01T12:43:41;17.90;99.90
50690;DHT22;71367;48.298;11.238;2023-08-01T12:58:44;18.40;99.90
50690;DHT22;71367;48.298;11.238;2023-08-01T13:13:46;18.60;99.90
50690;DHT22;71367;48.298;11.238;2023-08-01T13:28:48;17.60;99.90
50690;DHT22;71367;48.298;11.238;2023-08-01T13:43:51;19.10;99.90
50690;DHT22;71367;48.298;11.238;2023-08-01T13:58:53;18.50;99.90
50690;DHT22;71367;48.298;11.238;2023-08-01T14:13:56;17.40;99.90
50690;DHT22;71367;48.298;11.238;2023-08-01T14:28:58;17.30;99.90
50690;DHT22;71367;48.298;11.238;2023-08-01T14:44:01;19.60;99.80
50690;DHT22;71367;48.298;11.238;2023-08-01T14:59:03;21.50;97.70
50690;DHT22;71367;48.298;11.238;2023-08-01T15:14:06;22.30;96.10
50690;DHT22;71367;48.298;11.238;2023-08-01T15:29:08;20.40;97.20
50690;DHT22;71367;48.298;11.238;2023-08-01T15:44:10;20.10;98.70
50690;DHT22;71367;48.298;11.238;2023-08-01T15:59:13;20.80;96.50
50690;DHT22;71367;48.298;11.238;2023-08-01T16:14:15;20.20;96.50
50690;DHT22;71367;48.298;11.238;2023-08-01T16:29:18;20.60;95.10
50690;DHT22;71367;48.298;11.238;2023-08-01T16:44:20;20.90;93.60
50690;DHT22;71367;48.298;11.238;2023-08-01T16:59:24;21.00;92.10
50690;DHT22;71367;48.298;11.238;2023-08-01T17:14:28;21.10;91.90
50690;DHT22;71367;48.298;11.238;2023-08-01T17:29:30;21.30;90.90
50690;DHT22;71367;48.298;11.238;2023-08-01T17:44:33;21.20;90.60
50690;DHT22;71367;48.298;11.238;2023-08-01T17:59:35;19.90;92.60
50690;DHT22;71367;48.298;11.238;2023-08-01T18:14:38;20.00;92.90
50690;DHT22;71367;48.298;11.238;2023-08-01T18:29:40;19.30;94.30
50690;DHT22;71367;48.298;11.238;2023-08-01T18:44:43;19.00;95.30
50690;DHT22;71367;48.298;11.238;2023-08-01T18:59:46;18.40;96.40
50690;DHT22;71367;48.298;11.238;2023-08-01T19:14:50;17.90;97.50
50690;DHT22;71367;48.298;11.238;2023-08-01T19:29:54;17.70;98.20
50690;DHT22;71367;48.298;11.238;2023-08-01T19:44:59;17.30;99.20
50690;DHT22;71367;48.298;11.238;2023-08-01T20:00:10;17.10;99.90
50690;DHT22;71367;48.298;11.238;2023-08-01T20:15:16;17.10;99.90
50690;DHT22;71367;48.298;11.238;2023-08-01T20:30:19;17.10;99.90
50690;DHT22;71367;48.298;11.238;2023-08-01T20:45:22;17.00;99.90
50690;DHT22;71367;48.298;11.238;2023-08-01T21:00:27;16.90;99.90
50690;DHT22;71367;48.298;11.238;2023-08-01T21:15:37;16.90;99.90
50690;DHT22;71367;48.298;11.238;2023-08-01T21:30:47;16.70;99.90
50690;DHT22;71367;48.298;11.238;2023-08-01T21:45:55;16.50;99.90
50690;DHT22;71367;48.298;11.238;2023-08-01T22:00:58;16.20;99.90
50690;DHT22;71367;48.298;11.238;2023-08-01T22:16:03;15.90;99.90
50690;DHT22;71367;48.298;11.238;2023-08-01T22:31:07;15.60;99.90
50690;DHT22;71367;48.298;11.238;2023-08-01T22:46:11;15.40;99.90
50690;DHT22;71367;48.298;11.238;2023-08-01T23:01:17;15.20;99.90
50690;DHT22;71367;48.298;11.238;2023-08-01T23:16:21;15.10;99.90
50690;DHT22;71367;48.298;11.238;2023-08-01T23:31:25;15.00;99.90
50690;DHT22;71367;48.298;11.238;2023-08-01T23:46:28;14.90;99.90
